This is the latest recevied weather packets stored in our database for station/object KI6AOK. If no packets are shown the sender has not sent any weather packets the latest 1 day(s).
| Time | Temp. | Humidity | Pressure | Rain* | Wind** | Luminosity | Snow |
|---|---|---|---|---|---|---|---|
| 1778030141 | 17.78° C | 55% | 1014.7 hPa | 0 mm | - | 97 W/m² | - |
| 1778029837 | 17.78° C | 56% | 1014.8 hPa | 0 mm | - | 102 W/m² | - |
| 1778029536 | 17.78° C | 55% | 1014.8 hPa | 0 mm | - | 121 W/m² | - |
| 1778027716 | 18.33° C | 54% | 1014.6 hPa | 0 mm | - | 229 W/m² | - |
| 1778027412 | 18.33° C | 53% | 1014.5 hPa | 0 mm | - | 231 W/m² | - |
| 1778026804 | 18.33° C | 52% | 1014.6 hPa | 0 mm | - | 289 W/m² | - |
| 1778026198 | 18.89° C | 51% | 1014.5 hPa | 0 mm | - | 315 W/m² | - |
| 1778025291 | 18.33° C | 54% | 1014.7 hPa | 0 mm | - | 371 W/m² | - |
| 1778024987 | 18.89° C | 51% | 1014.6 hPa | 0 mm | - | 394 W/m² | - |
| 1778024381 | 18.33° C | 54% | 1014.8 hPa | 0 mm | - | 151 W/m² | - |
| 1778023776 | 20° C | 48% | 1014.5 hPa | 0 mm | - | 458 W/m² | - |
| 1778016505 | 20° C | 46% | 1015 hPa | 0 mm | - | 830 W/m² | - |
| 1778014081 | 20° C | 49% | 1015.3 hPa | 0 mm | - | 211 W/m² | - |
| 1778013173 | 20° C | 50% | 1015.3 hPa | 0 mm | - | 323 W/m² | - |
| 1778012565 | 20.56° C | 47% | 1015.4 hPa | 0 mm | - | 365 W/m² | - |
| 1778009233 | 19.44° C | 43% | 1015.4 hPa | 0 mm | - | 909 W/m² | - |
| 1778008326 | 18.89° C | 51% | 1015.7 hPa | 0 mm | - | 1020 W/m² | - |
| 1778007419 | 17.78° C | 54% | 1015.7 hPa | 0 mm | - | 298 W/m² | - |
| 1778007115 | 17.78° C | 52% | 1015.7 hPa | 0 mm | - | 351 W/m² | - |
| 1778004386 | 18.89° C | 54% | 1015.5 hPa | 0 mm | - | 1061 W/m² | - |
| 1778003476 | 17.78° C | 64% | 1015.4 hPa | 0 mm | - | 981 W/m² | - |
| 1778001351 | 15° C | 79% | 1015.2 hPa | 0 mm | - | 189 W/m² | - |
| 1778000745 | 15° C | 82% | 1014.9 hPa | 0 mm | - | 247 W/m² | - |
| 1778000137 | 14.44° C | 84% | 1014.8 hPa | 0 mm | - | 88 W/m² | - |
| 1777999529 | 14.44° C | 82% | 1015 hPa | 0 mm | - | 140 W/m² | - |
* Rain latest hour (hover to see other rain measurements)
** Current wind speed in m/s (hover to see current wind gust speed)